Aviation Digital Data Service (ADDS)

Output produced by TAFs form (2353 UTC 18 February 2018)
found at http://www.aviationweather.gov/adds/tafs/
 
METAR text: RJSY 182300Z 27011KT 240V310 9999 -SHSN FEW010 SCT025 BKN040 00/M07 Q1022
Conditions at: RJSY (SHONAI , JP) observed 2300 UTC 18 February 2018
Temperature: 0.0°C (32°F)
Dewpoint: -7.0°C (19°F) [RH = 59%]
Pressure (altimeter): 30.18 inches Hg (1022.0 mb)
Winds: from the W (270 degrees) at 13 MPH (11 knots; 5.7 m/s)
Visibility: 6 or more miles (10+ km)
Ceiling: 4000 feet AGL
Clouds: few clouds at 1000 feet AGL
scattered clouds at 2500 feet AGL
broken clouds at 4000 feet AGL
Weather: -SHSN  (light snow showers)